sensor_id;sensor_type;location;lat;lon;timestamp;P1;durP1;ratioP1;P2;durP2;ratioP2
65581;SDS011;52231;40.090;18.348;2024-03-22T00:00:40;36.45;;;21.80;;
65581;SDS011;52231;40.090;18.348;2024-03-22T00:03:07;34.80;;;20.90;;
65581;SDS011;52231;40.090;18.348;2024-03-22T00:05:34;34.35;;;21.38;;
65581;SDS011;52231;40.090;18.348;2024-03-22T00:08:01;36.78;;;20.73;;
65581;SDS011;52231;40.090;18.348;2024-03-22T00:10:28;37.30;;;20.77;;
65581;SDS011;52231;40.090;18.348;2024-03-22T00:12:55;39.13;;;21.75;;
65581;SDS011;52231;40.090;18.348;2024-03-22T00:15:22;35.90;;;20.80;;
65581;SDS011;52231;40.090;18.348;2024-03-22T00:17:49;32.97;;;20.27;;
65581;SDS011;52231;40.090;18.348;2024-03-22T00:20:16;32.80;;;20.48;;
65581;SDS011;52231;40.090;18.348;2024-03-22T00:22:43;35.03;;;20.20;;
65581;SDS011;52231;40.090;18.348;2024-03-22T00:25:10;35.97;;;21.60;;
65581;SDS011;52231;40.090;18.348;2024-03-22T00:27:37;36.67;;;20.67;;
65581;SDS011;52231;40.090;18.348;2024-03-22T00:30:04;35.03;;;20.92;;
65581;SDS011;52231;40.090;18.348;2024-03-22T00:32:32;33.58;;;20.45;;
65581;SDS011;52231;40.090;18.348;2024-03-22T00:35:00;37.25;;;22.13;;
65581;SDS011;52231;40.090;18.348;2024-03-22T00:37:27;37.55;;;21.60;;
65581;SDS011;52231;40.090;18.348;2024-03-22T00:39:54;34.05;;;21.05;;
65581;SDS011;52231;40.090;18.348;2024-03-22T00:42:21;34.05;;;20.38;;
65581;SDS011;52231;40.090;18.348;2024-03-22T00:44:48;33.30;;;20.35;;
65581;SDS011;52231;40.090;18.348;2024-03-22T00:47:15;33.65;;;19.33;;
65581;SDS011;52231;40.090;18.348;2024-03-22T00:49:42;33.67;;;21.00;;
65581;SDS011;52231;40.090;18.348;2024-03-22T00:52:09;35.55;;;21.08;;
65581;SDS011;52231;40.090;18.348;2024-03-22T00:54:36;35.60;;;20.58;;
65581;SDS011;52231;40.090;18.348;2024-03-22T00:57:05;33.08;;;20.55;;
65581;SDS011;52231;40.090;18.348;2024-03-22T00:59:33;36.72;;;21.13;;
65581;SDS011;52231;40.090;18.348;2024-03-22T01:02:00;35.65;;;19.70;;
65581;SDS011;52231;40.090;18.348;2024-03-22T01:04:27;36.25;;;22.63;;
65581;SDS011;52231;40.090;18.348;2024-03-22T01:06:53;35.58;;;21.73;;
65581;SDS011;52231;40.090;18.348;2024-03-22T01:09:20;35.55;;;21.10;;
65581;SDS011;52231;40.090;18.348;2024-03-22T01:11:47;34.88;;;20.40;;
65581;SDS011;52231;40.090;18.348;2024-03-22T01:14:14;38.45;;;21.77;;
65581;SDS011;52231;40.090;18.348;2024-03-22T01:16:41;38.90;;;21.77;;
65581;SDS011;52231;40.090;18.348;2024-03-22T01:19:08;36.90;;;20.70;;
65581;SDS011;52231;40.090;18.348;2024-03-22T01:21:35;33.75;;;21.70;;
65581;SDS011;52231;40.090;18.348;2024-03-22T01:24:21;36.00;;;21.50;;
65581;SDS011;52231;40.090;18.348;2024-03-22T01:26:48;38.65;;;21.98;;
65581;SDS011;52231;40.090;18.348;2024-03-22T01:29:15;39.20;;;22.65;;
65581;SDS011;52231;40.090;18.348;2024-03-22T01:32:00;40.05;;;22.30;;
65581;SDS011;52231;40.090;18.348;2024-03-22T01:34:27;37.58;;;21.48;;
65581;SDS011;52231;40.090;18.348;2024-03-22T01:36:54;35.97;;;20.80;;
65581;SDS011;52231;40.090;18.348;2024-03-22T01:39:21;33.80;;;21.67;;
65581;SDS011;52231;40.090;18.348;2024-03-22T01:41:49;36.13;;;21.95;;
65581;SDS011;52231;40.090;18.348;2024-03-22T01:44:17;39.20;;;23.52;;
65581;SDS011;52231;40.090;18.348;2024-03-22T01:46:44;37.22;;;22.67;;
65581;SDS011;52231;40.090;18.348;2024-03-22T01:49:15;42.42;;;25.08;;
65581;SDS011;52231;40.090;18.348;2024-03-22T01:51:42;42.83;;;24.88;;
65581;SDS011;52231;40.090;18.348;2024-03-22T01:54:09;43.10;;;25.33;;
65581;SDS011;52231;40.090;18.348;2024-03-22T01:56:37;42.38;;;24.40;;
65581;SDS011;52231;40.090;18.348;2024-03-22T01:59:04;41.53;;;24.65;;
65581;SDS011;52231;40.090;18.348;2024-03-22T02:01:32;42.58;;;24.35;;
65581;SDS011;52231;40.090;18.348;2024-03-22T02:04:00;42.53;;;24.67;;
65581;SDS011;52231;40.090;18.348;2024-03-22T02:06:27;40.53;;;25.25;;
65581;SDS011;52231;40.090;18.348;2024-03-22T02:08:55;41.05;;;24.65;;
65581;SDS011;52231;40.090;18.348;2024-03-22T02:11:23;44.00;;;25.65;;
65581;SDS011;52231;40.090;18.348;2024-03-22T02:16:19;37.65;;;23.48;;
65581;SDS011;52231;40.090;18.348;2024-03-22T02:18:46;36.58;;;22.98;;
65581;SDS011;52231;40.090;18.348;2024-03-22T02:21:13;37.33;;;22.67;;
65581;SDS011;52231;40.090;18.348;2024-03-22T02:23:40;37.80;;;23.63;;
65581;SDS011;52231;40.090;18.348;2024-03-22T02:26:07;35.90;;;23.25;;
65581;SDS011;52231;40.090;18.348;2024-03-22T02:28:35;37.55;;;24.30;;
65581;SDS011;52231;40.090;18.348;2024-03-22T02:31:02;39.53;;;23.23;;
65581;SDS011;52231;40.090;18.348;2024-03-22T02:33:30;33.53;;;21.25;;
65581;SDS011;52231;40.090;18.348;2024-03-22T02:35:57;35.75;;;22.60;;
65581;SDS011;52231;40.090;18.348;2024-03-22T02:38:24;37.38;;;21.65;;
65581;SDS011;52231;40.090;18.348;2024-03-22T02:40:53;38.78;;;22.92;;
65581;SDS011;52231;40.090;18.348;2024-03-22T02:43:20;41.70;;;25.58;;
65581;SDS011;52231;40.090;18.348;2024-03-22T02:45:47;38.22;;;23.30;;
65581;SDS011;52231;40.090;18.348;2024-03-22T02:48:15;36.90;;;22.88;;
65581;SDS011;52231;40.090;18.348;2024-03-22T02:50:42;37.17;;;22.83;;
65581;SDS011;52231;40.090;18.348;2024-03-22T02:53:09;36.17;;;23.48;;
65581;SDS011;52231;40.090;18.348;2024-03-22T02:55:38;40.42;;;24.05;;
65581;SDS011;52231;40.090;18.348;2024-03-22T02:58:07;38.53;;;23.80;;
65581;SDS011;52231;40.090;18.348;2024-03-22T03:00:38;37.58;;;23.08;;
65581;SDS011;52231;40.090;18.348;2024-03-22T03:03:05;37.22;;;22.13;;
65581;SDS011;52231;40.090;18.348;2024-03-22T03:05:33;36.92;;;22.25;;
65581;SDS011;52231;40.090;18.348;2024-03-22T03:08:01;34.95;;;22.50;;
65581;SDS011;52231;40.090;18.348;2024-03-22T03:10:30;35.08;;;20.02;;
65581;SDS011;52231;40.090;18.348;2024-03-22T03:12:57;34.25;;;18.52;;
65581;SDS011;52231;40.090;18.348;2024-03-22T03:15:24;27.63;;;16.58;;
65581;SDS011;52231;40.090;18.348;2024-03-22T03:17:50;28.60;;;16.13;;
65581;SDS011;52231;40.090;18.348;2024-03-22T03:20:18;34.50;;;20.52;;
65581;SDS011;52231;40.090;18.348;2024-03-22T03:22:45;40.30;;;22.58;;
65581;SDS011;52231;40.090;18.348;2024-03-22T03:25:12;34.95;;;22.48;;
65581;SDS011;52231;40.090;18.348;2024-03-22T03:27:39;38.85;;;23.27;;
65581;SDS011;52231;40.090;18.348;2024-03-22T03:30:07;34.70;;;20.23;;
65581;SDS011;52231;40.090;18.348;2024-03-22T03:32:34;39.65;;;22.98;;
65581;SDS011;52231;40.090;18.348;2024-03-22T03:35:01;35.53;;;20.70;;
65581;SDS011;52231;40.090;18.348;2024-03-22T03:37:30;38.40;;;20.75;;
65581;SDS011;52231;40.090;18.348;2024-03-22T03:39:57;35.42;;;19.98;;
65581;SDS011;52231;40.090;18.348;2024-03-22T03:42:24;34.88;;;20.35;;
65581;SDS011;52231;40.090;18.348;2024-03-22T03:44:52;34.67;;;20.10;;
65581;SDS011;52231;40.090;18.348;2024-03-22T03:47:19;32.13;;;19.45;;
65581;SDS011;52231;40.090;18.348;2024-03-22T03:49:46;36.60;;;21.08;;
65581;SDS011;52231;40.090;18.348;2024-03-22T03:52:13;35.67;;;20.45;;
65581;SDS011;52231;40.090;18.348;2024-03-22T03:54:41;33.65;;;20.38;;
65581;SDS011;52231;40.090;18.348;2024-03-22T03:57:08;37.55;;;20.48;;
65581;SDS011;52231;40.090;18.348;2024-03-22T03:59:35;36.08;;;21.33;;
65581;SDS011;52231;40.090;18.348;2024-03-22T04:02:02;33.13;;;19.38;;
65581;SDS011;52231;40.090;18.348;2024-03-22T04:04:29;33.83;;;19.75;;
65581;SDS011;52231;40.090;18.348;2024-03-22T04:06:56;33.60;;;19.67;;
65581;SDS011;52231;40.090;18.348;2024-03-22T04:09:23;34.72;;;20.08;;
65581;SDS011;52231;40.090;18.348;2024-03-22T04:11:50;32.30;;;19.08;;
65581;SDS011;52231;40.090;18.348;2024-03-22T04:14:17;33.47;;;19.52;;
65581;SDS011;52231;40.090;18.348;2024-03-22T04:16:44;35.63;;;19.95;;
65581;SDS011;52231;40.090;18.348;2024-03-22T04:19:10;34.03;;;19.55;;
65581;SDS011;52231;40.090;18.348;2024-03-22T04:21:37;35.70;;;20.00;;
65581;SDS011;52231;40.090;18.348;2024-03-22T04:24:07;35.05;;;19.30;;
65581;SDS011;52231;40.090;18.348;2024-03-22T04:26:34;37.67;;;18.70;;
65581;SDS011;52231;40.090;18.348;2024-03-22T04:29:01;35.55;;;19.67;;
65581;SDS011;52231;40.090;18.348;2024-03-22T04:31:28;33.92;;;20.00;;
65581;SDS011;52231;40.090;18.348;2024-03-22T04:33:56;34.05;;;19.30;;
65581;SDS011;52231;40.090;18.348;2024-03-22T04:36:23;35.15;;;19.48;;
65581;SDS011;52231;40.090;18.348;2024-03-22T04:38:50;34.78;;;20.45;;
65581;SDS011;52231;40.090;18.348;2024-03-22T04:41:17;37.33;;;19.95;;
65581;SDS011;52231;40.090;18.348;2024-03-22T04:43:44;38.90;;;20.08;;
65581;SDS011;52231;40.090;18.348;2024-03-22T04:46:11;47.50;;;22.08;;
65581;SDS011;52231;40.090;18.348;2024-03-22T04:48:38;39.45;;;20.85;;
65581;SDS011;52231;40.090;18.348;2024-03-22T04:51:05;35.55;;;19.70;;
65581;SDS011;52231;40.090;18.348;2024-03-22T04:53:32;36.10;;;20.58;;
65581;SDS011;52231;40.090;18.348;2024-03-22T04:55:59;38.90;;;21.08;;
65581;SDS011;52231;40.090;18.348;2024-03-22T04:58:26;37.08;;;20.75;;
65581;SDS011;52231;40.090;18.348;2024-03-22T05:00:57;39.50;;;20.20;;
65581;SDS011;52231;40.090;18.348;2024-03-22T05:03:24;36.30;;;20.77;;
65581;SDS011;52231;40.090;18.348;2024-03-22T05:05:51;41.60;;;21.52;;
65581;SDS011;52231;40.090;18.348;2024-03-22T05:08:18;40.22;;;22.55;;
65581;SDS011;52231;40.090;18.348;2024-03-22T05:10:45;44.47;;;24.40;;
65581;SDS011;52231;40.090;18.348;2024-03-22T05:13:12;42.80;;;23.05;;
65581;SDS011;52231;40.090;18.348;2024-03-22T05:15:39;45.88;;;25.05;;
65581;SDS011;52231;40.090;18.348;2024-03-22T05:18:06;42.47;;;24.02;;
65581;SDS011;52231;40.090;18.348;2024-03-22T05:20:33;39.28;;;22.92;;
65581;SDS011;52231;40.090;18.348;2024-03-22T05:23:00;41.40;;;22.48;;
65581;SDS011;52231;40.090;18.348;2024-03-22T05:25:27;39.83;;;22.45;;
65581;SDS011;52231;40.090;18.348;2024-03-22T05:27:54;32.65;;;20.08;;
65581;SDS011;52231;40.090;18.348;2024-03-22T05:30:22;35.03;;;20.05;;
65581;SDS011;52231;40.090;18.348;2024-03-22T05:32:49;37.10;;;20.70;;
65581;SDS011;52231;40.090;18.348;2024-03-22T05:35:16;35.50;;;21.30;;
65581;SDS011;52231;40.090;18.348;2024-03-22T05:37:44;40.30;;;22.13;;
65581;SDS011;52231;40.090;18.348;2024-03-22T05:40:11;37.67;;;20.80;;
65581;SDS011;52231;40.090;18.348;2024-03-22T05:42:39;37.08;;;20.92;;
65581;SDS011;52231;40.090;18.348;2024-03-22T05:45:06;32.95;;;19.73;;
65581;SDS011;52231;40.090;18.348;2024-03-22T05:47:33;33.13;;;20.08;;
65581;SDS011;52231;40.090;18.348;2024-03-22T05:50:00;37.33;;;20.67;;
65581;SDS011;52231;40.090;18.348;2024-03-22T05:52:28;36.28;;;20.30;;
65581;SDS011;52231;40.090;18.348;2024-03-22T05:54:55;37.22;;;21.17;;
65581;SDS011;52231;40.090;18.348;2024-03-22T05:57:22;35.35;;;20.70;;
65581;SDS011;52231;40.090;18.348;2024-03-22T05:59:49;37.40;;;21.75;;
65581;SDS011;52231;40.090;18.348;2024-03-22T06:02:16;37.60;;;21.70;;
65581;SDS011;52231;40.090;18.348;2024-03-22T06:04:43;34.97;;;18.70;;
65581;SDS011;52231;40.090;18.348;2024-03-22T06:07:10;29.83;;;18.15;;
65581;SDS011;52231;40.090;18.348;2024-03-22T06:09:37;29.00;;;17.65;;
65581;SDS011;52231;40.090;18.348;2024-03-22T06:12:15;28.67;;;17.42;;
65581;SDS011;52231;40.090;18.348;2024-03-22T06:14:42;30.77;;;18.77;;
65581;SDS011;52231;40.090;18.348;2024-03-22T06:17:10;26.98;;;16.95;;
65581;SDS011;52231;40.090;18.348;2024-03-22T06:19:37;27.40;;;15.82;;
65581;SDS011;52231;40.090;18.348;2024-03-22T06:22:06;32.75;;;18.27;;
65581;SDS011;52231;40.090;18.348;2024-03-22T06:24:33;27.83;;;15.93;;
65581;SDS011;52231;40.090;18.348;2024-03-22T06:27:00;27.75;;;16.05;;
65581;SDS011;52231;40.090;18.348;2024-03-22T06:29:27;27.50;;;15.65;;
65581;SDS011;52231;40.090;18.348;2024-03-22T06:31:54;27.27;;;16.88;;
65581;SDS011;52231;40.090;18.348;2024-03-22T06:34:21;28.25;;;16.02;;
65581;SDS011;52231;40.090;18.348;2024-03-22T06:36:49;29.33;;;16.00;;
65581;SDS011;52231;40.090;18.348;2024-03-22T06:39:17;25.90;;;14.80;;
65581;SDS011;52231;40.090;18.348;2024-03-22T06:41:44;26.67;;;16.08;;
65581;SDS011;52231;40.090;18.348;2024-03-22T06:44:11;26.25;;;16.75;;
65581;SDS011;52231;40.090;18.348;2024-03-22T06:46:40;25.75;;;14.13;;
65581;SDS011;52231;40.090;18.348;2024-03-22T06:49:06;26.65;;;15.02;;
65581;SDS011;52231;40.090;18.348;2024-03-22T06:51:33;25.60;;;15.30;;
65581;SDS011;52231;40.090;18.348;2024-03-22T06:54:00;29.58;;;15.60;;
65581;SDS011;52231;40.090;18.348;2024-03-22T06:56:27;29.27;;;16.38;;
65581;SDS011;52231;40.090;18.348;2024-03-22T06:58:54;23.95;;;14.18;;
65581;SDS011;52231;40.090;18.348;2024-03-22T07:01:21;22.48;;;12.63;;
65581;SDS011;52231;40.090;18.348;2024-03-22T07:03:48;21.95;;;13.38;;
65581;SDS011;52231;40.090;18.348;2024-03-22T07:06:15;19.67;;;12.48;;
65581;SDS011;52231;40.090;18.348;2024-03-22T07:08:42;21.50;;;12.13;;
65581;SDS011;52231;40.090;18.348;2024-03-22T07:11:09;21.30;;;11.90;;
65581;SDS011;52231;40.090;18.348;2024-03-22T07:13:36;19.77;;;12.40;;
65581;SDS011;52231;40.090;18.348;2024-03-22T07:16:03;21.77;;;13.25;;
65581;SDS011;52231;40.090;18.348;2024-03-22T07:18:30;23.98;;;15.32;;
65581;SDS011;52231;40.090;18.348;2024-03-22T07:20:57;24.88;;;15.38;;
65581;SDS011;52231;40.090;18.348;2024-03-22T07:23:27;25.67;;;14.75;;
65581;SDS011;52231;40.090;18.348;2024-03-22T07:25:54;23.95;;;15.52;;
65581;SDS011;52231;40.090;18.348;2024-03-22T07:28:21;22.67;;;14.57;;
65581;SDS011;52231;40.090;18.348;2024-03-22T07:30:48;21.42;;;13.40;;
65581;SDS011;52231;40.090;18.348;2024-03-22T07:33:16;21.75;;;14.70;;
65581;SDS011;52231;40.090;18.348;2024-03-22T07:35:44;24.25;;;15.10;;
65581;SDS011;52231;40.090;18.348;2024-03-22T07:38:10;24.98;;;14.52;;
65581;SDS011;52231;40.090;18.348;2024-03-22T07:40:56;24.10;;;13.50;;
65581;SDS011;52231;40.090;18.348;2024-03-22T07:43:23;22.63;;;14.02;;
65581;SDS011;52231;40.090;18.348;2024-03-22T07:45:50;24.02;;;15.10;;
65581;SDS011;52231;40.090;18.348;2024-03-22T07:48:17;22.25;;;12.27;;
65581;SDS011;52231;40.090;18.348;2024-03-22T07:50:44;18.23;;;11.77;;
65581;SDS011;52231;40.090;18.348;2024-03-22T07:53:11;16.80;;;10.48;;
65581;SDS011;52231;40.090;18.348;2024-03-22T07:55:40;18.20;;;10.70;;
65581;SDS011;52231;40.090;18.348;2024-03-22T07:58:07;17.92;;;9.55;;
65581;SDS011;52231;40.090;18.348;2024-03-22T08:00:34;10.45;;;5.50;;
65581;SDS011;52231;40.090;18.348;2024-03-22T08:03:01;9.65;;;4.35;;
65581;SDS011;52231;40.090;18.348;2024-03-22T08:05:28;8.73;;;3.97;;
65581;SDS011;52231;40.090;18.348;2024-03-22T08:07:55;8.80;;;3.88;;
65581;SDS011;52231;40.090;18.348;2024-03-22T08:10:22;12.52;;;4.10;;
65581;SDS011;52231;40.090;18.348;2024-03-22T08:12:49;8.23;;;3.15;;
65581;SDS011;52231;40.090;18.348;2024-03-22T08:15:16;9.60;;;3.42;;
65581;SDS011;52231;40.090;18.348;2024-03-22T08:17:43;8.90;;;3.58;;
65581;SDS011;52231;40.090;18.348;2024-03-22T08:20:10;8.15;;;3.30;;
65581;SDS011;52231;40.090;18.348;2024-03-22T08:22:37;8.20;;;3.40;;
65581;SDS011;52231;40.090;18.348;2024-03-22T08:25:04;9.15;;;3.40;;
65581;SDS011;52231;40.090;18.348;2024-03-22T08:27:34;10.93;;;3.80;;
65581;SDS011;52231;40.090;18.348;2024-03-22T08:30:01;8.25;;;3.60;;
65581;SDS011;52231;40.090;18.348;2024-03-22T08:32:30;8.95;;;4.10;;
65581;SDS011;52231;40.090;18.348;2024-03-22T08:34:57;11.70;;;3.50;;
65581;SDS011;52231;40.090;18.348;2024-03-22T08:37:24;9.77;;;3.38;;
65581;SDS011;52231;40.090;18.348;2024-03-22T08:39:52;11.27;;;3.97;;
65581;SDS011;52231;40.090;18.348;2024-03-22T08:42:19;8.52;;;3.47;;
65581;SDS011;52231;40.090;18.348;2024-03-22T08:44:46;9.98;;;3.30;;
65581;SDS011;52231;40.090;18.348;2024-03-22T08:47:13;7.60;;;3.33;;
65581;SDS011;52231;40.090;18.348;2024-03-22T08:49:40;7.90;;;3.00;;
65581;SDS011;52231;40.090;18.348;2024-03-22T08:52:10;7.13;;;2.58;;
65581;SDS011;52231;40.090;18.348;2024-03-22T08:54:37;8.05;;;2.80;;
65581;SDS011;52231;40.090;18.348;2024-03-22T08:57:04;8.88;;;3.15;;
65581;SDS011;52231;40.090;18.348;2024-03-22T08:59:32;7.53;;;2.70;;
65581;SDS011;52231;40.090;18.348;2024-03-22T09:01:59;7.82;;;2.67;;
65581;SDS011;52231;40.090;18.348;2024-03-22T09:04:26;6.88;;;2.50;;
65581;SDS011;52231;40.090;18.348;2024-03-22T09:06:53;7.70;;;2.70;;
65581;SDS011;52231;40.090;18.348;2024-03-22T09:09:20;7.22;;;3.00;;
65581;SDS011;52231;40.090;18.348;2024-03-22T09:11:47;5.85;;;3.03;;
65581;SDS011;52231;40.090;18.348;2024-03-22T09:14:14;7.82;;;3.17;;
65581;SDS011;52231;40.090;18.348;2024-03-22T09:16:41;7.18;;;2.70;;
65581;SDS011;52231;40.090;18.348;2024-03-22T09:19:08;6.65;;;2.65;;
65581;SDS011;52231;40.090;18.348;2024-03-22T09:21:37;7.05;;;2.70;;
65581;SDS011;52231;40.090;18.348;2024-03-22T09:24:04;8.13;;;3.13;;
65581;SDS011;52231;40.090;18.348;2024-03-22T09:26:32;7.03;;;3.00;;
65581;SDS011;52231;40.090;18.348;2024-03-22T09:28:59;6.72;;;2.83;;
65581;SDS011;52231;40.090;18.348;2024-03-22T09:31:26;9.90;;;2.90;;
65581;SDS011;52231;40.090;18.348;2024-03-22T09:33:53;6.47;;;2.92;;
65581;SDS011;52231;40.090;18.348;2024-03-22T09:36:20;6.43;;;2.70;;
65581;SDS011;52231;40.090;18.348;2024-03-22T09:38:48;5.30;;;2.17;;
65581;SDS011;52231;40.090;18.348;2024-03-22T09:41:15;8.27;;;2.30;;
65581;SDS011;52231;40.090;18.348;2024-03-22T09:43:44;7.03;;;2.15;;
65581;SDS011;52231;40.090;18.348;2024-03-22T09:46:16;4.40;;;2.40;;
65581;SDS011;52231;40.090;18.348;2024-03-22T09:48:49;8.10;;;2.60;;
65581;SDS011;52231;40.090;18.348;2024-03-22T09:51:18;4.72;;;2.10;;
65581;SDS011;52231;40.090;18.348;2024-03-22T09:53:45;6.55;;;2.17;;
65581;SDS011;52231;40.090;18.348;2024-03-22T09:56:16;6.57;;;2.50;;
65581;SDS011;52231;40.090;18.348;2024-03-22T09:58:47;5.05;;;2.35;;
65581;SDS011;52231;40.090;18.348;2024-03-22T10:01:14;5.22;;;2.55;;
65581;SDS011;52231;40.090;18.348;2024-03-22T10:03:42;7.75;;;2.63;;
65581;SDS011;52231;40.090;18.348;2024-03-22T10:06:10;8.05;;;2.13;;
65581;SDS011;52231;40.090;18.348;2024-03-22T10:08:38;9.80;;;3.22;;
65581;SDS011;52231;40.090;18.348;2024-03-22T10:11:05;8.40;;;2.65;;
65581;SDS011;52231;40.090;18.348;2024-03-22T10:13:32;6.10;;;2.70;;
65581;SDS011;52231;40.090;18.348;2024-03-22T10:15:59;5.30;;;2.30;;
65581;SDS011;52231;40.090;18.348;2024-03-22T10:18:26;7.18;;;2.83;;
65581;SDS011;52231;40.090;18.348;2024-03-22T10:21:03;6.78;;;2.65;;
65581;SDS011;52231;40.090;18.348;2024-03-22T10:23:30;7.00;;;2.50;;
65581;SDS011;52231;40.090;18.348;2024-03-22T10:25:58;6.75;;;2.60;;
65581;SDS011;52231;40.090;18.348;2024-03-22T10:28:26;8.02;;;2.97;;
65581;SDS011;52231;40.090;18.348;2024-03-22T10:30:55;6.47;;;2.50;;
65581;SDS011;52231;40.090;18.348;2024-03-22T10:33:22;8.77;;;3.63;;
65581;SDS011;52231;40.090;18.348;2024-03-22T10:35:53;8.38;;;3.67;;
65581;SDS011;52231;40.090;18.348;2024-03-22T10:38:39;5.55;;;2.50;;
65581;SDS011;52231;40.090;18.348;2024-03-22T10:41:07;5.50;;;2.53;;
65581;SDS011;52231;40.090;18.348;2024-03-22T10:43:34;5.35;;;2.70;;
65581;SDS011;52231;40.090;18.348;2024-03-22T10:46:02;5.65;;;2.75;;
65581;SDS011;52231;40.090;18.348;2024-03-22T10:48:32;7.95;;;2.67;;
65581;SDS011;52231;40.090;18.348;2024-03-22T10:51:00;7.10;;;2.92;;
65581;SDS011;52231;40.090;18.348;2024-03-22T10:53:28;8.57;;;3.20;;
65581;SDS011;52231;40.090;18.348;2024-03-22T10:55:58;8.20;;;3.08;;
65581;SDS011;52231;40.090;18.348;2024-03-22T10:58:27;10.95;;;3.33;;
65581;SDS011;52231;40.090;18.348;2024-03-22T11:00:55;7.22;;;2.70;;
65581;SDS011;52231;40.090;18.348;2024-03-22T11:03:24;8.18;;;2.90;;
65581;SDS011;52231;40.090;18.348;2024-03-22T11:05:55;6.55;;;2.83;;
65581;SDS011;52231;40.090;18.348;2024-03-22T11:08:26;7.00;;;2.97;;
65581;SDS011;52231;40.090;18.348;2024-03-22T11:10:58;8.63;;;3.50;;
65581;SDS011;52231;40.090;18.348;2024-03-22T11:13:36;7.50;;;2.92;;
65581;SDS011;52231;40.090;18.348;2024-03-22T11:16:05;9.68;;;3.17;;
65581;SDS011;52231;40.090;18.348;2024-03-22T11:18:34;8.30;;;3.55;;
65581;SDS011;52231;40.090;18.348;2024-03-22T11:21:01;7.43;;;3.03;;
65581;SDS011;52231;40.090;18.348;2024-03-22T11:23:47;9.25;;;3.28;;
65581;SDS011;52231;40.090;18.348;2024-03-22T11:26:14;7.55;;;3.00;;
65581;SDS011;52231;40.090;18.348;2024-03-22T11:28:42;9.15;;;3.20;;
65581;SDS011;52231;40.090;18.348;2024-03-22T11:31:09;7.15;;;3.33;;
65581;SDS011;52231;40.090;18.348;2024-03-22T11:33:36;6.78;;;3.05;;
65581;SDS011;52231;40.090;18.348;2024-03-22T11:36:03;7.97;;;3.30;;
65581;SDS011;52231;40.090;18.348;2024-03-22T11:38:31;9.27;;;3.70;;
65581;SDS011;52231;40.090;18.348;2024-03-22T11:41:18;10.00;;;3.40;;
65581;SDS011;52231;40.090;18.348;2024-03-22T11:43:49;9.13;;;3.45;;
65581;SDS011;52231;40.090;18.348;2024-03-22T11:46:17;7.60;;;3.30;;
65581;SDS011;52231;40.090;18.348;2024-03-22T11:48:44;9.70;;;3.53;;
65581;SDS011;52231;40.090;18.348;2024-03-22T11:51:11;9.07;;;3.13;;
65581;SDS011;52231;40.090;18.348;2024-03-22T11:53:38;8.38;;;3.45;;
65581;SDS011;52231;40.090;18.348;2024-03-22T11:56:06;6.32;;;3.03;;
65581;SDS011;52231;40.090;18.348;2024-03-22T12:01:01;6.28;;;3.22;;
65581;SDS011;52231;40.090;18.348;2024-03-22T12:03:28;8.82;;;3.20;;
65581;SDS011;52231;40.090;18.348;2024-03-22T12:05:57;9.80;;;3.20;;
65581;SDS011;52231;40.090;18.348;2024-03-22T12:08:24;6.93;;;2.90;;
65581;SDS011;52231;40.090;18.348;2024-03-22T12:10:51;7.80;;;3.00;;
65581;SDS011;52231;40.090;18.348;2024-03-22T12:13:18;8.68;;;3.08;;
65581;SDS011;52231;40.090;18.348;2024-03-22T12:15:45;9.73;;;3.28;;
65581;SDS011;52231;40.090;18.348;2024-03-22T12:18:12;7.18;;;3.30;;
65581;SDS011;52231;40.090;18.348;2024-03-22T12:20:39;8.27;;;3.58;;
65581;SDS011;52231;40.090;18.348;2024-03-22T12:23:06;7.38;;;3.08;;
65581;SDS011;52231;40.090;18.348;2024-03-22T12:25:33;8.30;;;2.60;;
65581;SDS011;52231;40.090;18.348;2024-03-22T12:28:00;7.65;;;3.25;;
65581;SDS011;52231;40.090;18.348;2024-03-22T12:30:27;7.13;;;3.10;;
65581;SDS011;52231;40.090;18.348;2024-03-22T12:32:54;7.10;;;2.78;;
65581;SDS011;52231;40.090;18.348;2024-03-22T12:35:21;7.32;;;2.90;;
65581;SDS011;52231;40.090;18.348;2024-03-22T12:37:48;6.50;;;3.05;;
65581;SDS011;52231;40.090;18.348;2024-03-22T12:40:15;5.85;;;2.65;;
65581;SDS011;52231;40.090;18.348;2024-03-22T12:42:42;7.38;;;2.85;;
65581;SDS011;52231;40.090;18.348;2024-03-22T12:45:09;6.80;;;2.75;;
65581;SDS011;52231;40.090;18.348;2024-03-22T12:47:36;8.50;;;3.08;;
65581;SDS011;52231;40.090;18.348;2024-03-22T12:52:32;9.88;;;3.08;;
65581;SDS011;52231;40.090;18.348;2024-03-22T12:54:59;6.40;;;2.63;;
65581;SDS011;52231;40.090;18.348;2024-03-22T12:57:26;5.93;;;2.67;;
65581;SDS011;52231;40.090;18.348;2024-03-22T12:59:53;7.47;;;3.00;;
65581;SDS011;52231;40.090;18.348;2024-03-22T13:02:20;6.70;;;3.00;;
65581;SDS011;52231;40.090;18.348;2024-03-22T13:04:47;5.93;;;2.60;;
65581;SDS011;52231;40.090;18.348;2024-03-22T13:07:15;6.30;;;2.70;;
65581;SDS011;52231;40.090;18.348;2024-03-22T13:09:43;7.05;;;2.80;;
65581;SDS011;52231;40.090;18.348;2024-03-22T13:12:10;7.60;;;3.30;;
65581;SDS011;52231;40.090;18.348;2024-03-22T13:14:37;5.80;;;2.78;;
65581;SDS011;52231;40.090;18.348;2024-03-22T13:17:04;6.65;;;2.70;;
65581;SDS011;52231;40.090;18.348;2024-03-22T13:19:32;7.90;;;2.92;;
65581;SDS011;52231;40.090;18.348;2024-03-22T13:21:59;7.00;;;2.70;;
65581;SDS011;52231;40.090;18.348;2024-03-22T13:24:26;6.57;;;2.63;;
65581;SDS011;52231;40.090;18.348;2024-03-22T13:26:53;5.68;;;2.67;;
65581;SDS011;52231;40.090;18.348;2024-03-22T13:29:20;8.90;;;2.72;;
65581;SDS011;52231;40.090;18.348;2024-03-22T13:31:47;7.70;;;2.78;;
65581;SDS011;52231;40.090;18.348;2024-03-22T13:34:14;6.55;;;2.97;;
65581;SDS011;52231;40.090;18.348;2024-03-22T13:36:41;6.10;;;2.60;;
65581;SDS011;52231;40.090;18.348;2024-03-22T13:39:08;7.93;;;2.88;;
65581;SDS011;52231;40.090;18.348;2024-03-22T13:41:37;8.13;;;2.88;;
65581;SDS011;52231;40.090;18.348;2024-03-22T13:44:04;7.40;;;2.85;;
65581;SDS011;52231;40.090;18.348;2024-03-22T13:46:32;6.65;;;3.10;;
65581;SDS011;52231;40.090;18.348;2024-03-22T13:49:06;6.53;;;3.35;;
65581;SDS011;52231;40.090;18.348;2024-03-22T13:51:41;8.40;;;3.22;;
65581;SDS011;52231;40.090;18.348;2024-03-22T13:54:09;6.82;;;3.53;;
65581;SDS011;52231;40.090;18.348;2024-03-22T13:56:38;7.50;;;3.20;;
65581;SDS011;52231;40.090;18.348;2024-03-22T13:59:05;5.07;;;2.80;;
65581;SDS011;52231;40.090;18.348;2024-03-22T14:01:37;7.75;;;3.00;;
65581;SDS011;52231;40.090;18.348;2024-03-22T14:04:04;7.85;;;3.38;;
65581;SDS011;52231;40.090;18.348;2024-03-22T14:06:32;8.30;;;3.00;;
65581;SDS011;52231;40.090;18.348;2024-03-22T14:08:59;7.35;;;2.80;;
65581;SDS011;52231;40.090;18.348;2024-03-22T14:11:30;7.45;;;3.13;;
65581;SDS011;52231;40.090;18.348;2024-03-22T14:13:57;8.80;;;3.13;;
65581;SDS011;52231;40.090;18.348;2024-03-22T14:16:24;8.63;;;3.40;;
65581;SDS011;52231;40.090;18.348;2024-03-22T14:18:52;6.82;;;3.70;;
65581;SDS011;52231;40.090;18.348;2024-03-22T14:21:19;7.63;;;3.40;;
65581;SDS011;52231;40.090;18.348;2024-03-22T14:23:46;7.60;;;3.10;;
65581;SDS011;52231;40.090;18.348;2024-03-22T14:26:15;7.68;;;3.33;;
65581;SDS011;52231;40.090;18.348;2024-03-22T14:31:10;8.63;;;3.67;;
65581;SDS011;52231;40.090;18.348;2024-03-22T14:33:38;11.48;;;4.15;;